Map

Track Data

SID SEASON NUMBER BASIN SUBBASIN NAME ISO_TIME NATURE LAT LON WMO_WIND WMO_PRES WMO_AGENCY TRACK_TYPE DIST2LAND LANDFALL IFLAG USA_AGENCY USA_ATCF_ID USA_LAT USA_LON USA_RECORD USA_STATUS USA_WIND USA_PRES USA_SSHS USA_R34_NE USA_R34_SE USA_R34_SW USA_R34_NW USA_R50_NE USA_R50_SE USA_R50_SW USA_R50_NW USA_R64_NE USA_R64_SE USA_R64_SW USA_R64_NW USA_POCI USA_ROCI USA_RMW USA_EYE TOKYO_LAT TOKYO_LON TOKYO_GRADE TOKYO_WIND TOKYO_PRES TOKYO_R50_DIR TOKYO_R50_LONG TOKYO_R50_SHORT TOKYO_R30_DIR TOKYO_R30_LONG TOKYO_R30_SHORT TOKYO_LAND CMA_LAT CMA_LON CMA_CAT CMA_WIND CMA_PRES HKO_LAT HKO_LON HKO_CAT HKO_WIND HKO_PRES NEWDELHI_LAT NEWDELHI_LON NEWDELHI_GRADE NEWDELHI_WIND NEWDELHI_PRES NEWDELHI_CI NEWDELHI_DP NEWDELHI_POCI REUNION_LAT REUNION_LON REUNION_TYPE REUNION_WIND REUNION_PRES REUNION_TNUM REUNION_CI REUNION_RMW REUNION_R34_NE REUNION_R34_SE REUNION_R34_SW REUNION_R34_NW REUNION_R50_NE REUNION_R50_SE REUNION_R50_SW REUNION_R50_NW REUNION_R64_NE REUNION_R64_SE REUNION_R64_SW REUNION_R64_NW BOM_LAT BOM_LON BOM_TYPE BOM_WIND BOM_PRES BOM_TNUM BOM_CI BOM_RMW BOM_R34_NE BOM_R34_SE BOM_R34_SW BOM_R34_NW BOM_R50_NE BOM_R50_SE BOM_R50_SW BOM_R50_NW BOM_R64_NE BOM_R64_SE BOM_R64_SW BOM_R64_NW BOM_ROCI BOM_POCI BOM_EYE BOM_POS_METHOD BOM_PRES_METHOD NADI_LAT NADI_LON NADI_CAT NADI_WIND NADI_PRES WELLINGTON_LAT WELLINGTON_LON WELLINGTON_WIND WELLINGTON_PRES DS824_LAT DS824_LON DS824_STAGE DS824_WIND DS824_PRES TD9636_LAT TD9636_LON TD9636_STAGE TD9636_WIND TD9636_PRES TD9635_LAT TD9635_LON TD9635_WIND TD9635_PRES TD9635_ROCI NEUMANN_LAT NEUMANN_LON NEUMANN_CLASS NEUMANN_WIND NEUMANN_PRES MLC_LAT MLC_LON MLC_CLASS MLC_WIND MLC_PRES USA_GUST BOM_GUST BOM_GUST_PER REUNION_GUST REUNION_GUST_PER USA_SEAHGT USA_SEARAD_NE USA_SEARAD_SE USA_SEARAD_SW USA_SEARAD_NW STORM_SPEED STORM_DIR
1987062S13072 1987 23 SI MM DAODO 1987-03-02 12:00:00 TS -13.4250 72.4750 36 991 reunion main 1743 1719 O____O____O_O_ jtwc_sh SH211987 -13.4000 72.3000 25 -1 -13.5000 73.0000 3 36 991 3.00000 3.00000 -13.4000 72.3000 1 25 -13.4000 72.3000 TC 25 4 247
1987062S13072 1987 23 SI MM DAODO 1987-03-02 15:00:00 TS -13.5068 72.2812 main 1719 1694 P____P____P_P_ SH211987 -13.5026 72.0325 27 -1 -13.5000 73.0000 3 36 991 -13.5221 72.0597 1 26 -13.5026 72.0325 TC 27 4 246
1987062S13072 1987 23 SI MM DAODO 1987-03-02 18:00:00 TS -13.5813 72.1088 36 991 reunion main 1694 1685 O____O____P_O_ jtwc_sh SH211987 -13.6000 71.8000 30 -1 -13.5000 73.0000 3 36 991 3.00000 3.00000 -13.6253 71.8353 1 27 -13.6000 71.8000 TC 30 3 246
1987062S13072 1987 23 SI MM DAODO 1987-03-02 21:00:00 TS -13.6377 71.9746 main 1685 1670 P____P____P_P_ SH211987 -13.6800 71.6275 30 -1 -13.5000 73.0000 3 36 991 -13.6908 71.6433 1 28 -13.6800 71.6275 TC 30 2 253
1987062S13072 1987 23 SI MM DAODO 1987-03-03 00:00:00 TS -13.6500 71.8750 36 991 reunion main 1675 1666 O____O____O_O_ jtwc_sh SH211987 -13.7000 71.5000 30 -1 -13.5000 73.0000 3 36 991 3.00000 3.00000 -13.7000 71.5000 1 30 -13.7000 71.5000 TC 30 2 280
1987062S13072 1987 23 SI MM DAODO 1987-03-03 03:00:00 TS -13.6057 71.7985 main 1666 1662 P____P____P_P_ SH211987 -13.6300 71.3699 32 -1 -13.5225 73.0376 3 36 991 -13.6405 71.4165 1 31 -13.6300 71.3699 TC 32 2 319
1987062S13072 1987 23 SI MM DAODO 1987-03-03 06:00:00 TS -13.5062 71.7456 36 991 reunion main 1662 1662 O____O____P_O_ jtwc_sh SH211987 -13.5000 71.3000 35 0 -13.5000 73.0000 3 36 991 3.00000 3.00000 -13.5249 71.3824 1 32 -13.5000 71.3000 TC 35 3 339
1987062S13072 1987 23 SI MM DAODO 1987-03-03 09:00:00 TS -13.3630 71.7061 main 1667 1667 P____P____P_P_ SH211987 -13.3575 71.3275 35 0 -13.3650 72.7874 3 36 991 -13.3718 71.3821 1 33 -13.3575 71.3275 TC 35 3 347
1987062S13072 1987 23 SI MM DAODO 1987-03-03 12:00:00 TS -13.2000 71.6750 36 991 reunion main 1678 1678 O____O____O_O_ jtwc_sh SH211987 -13.2000 71.4000 35 0 -13.2000 72.5000 3 36 991 3.00000 3.00000 -13.2000 71.4000 2 35 -13.2000 71.4000 TC 35 3 351
1987062S13072 1987 23 SI MM DAODO 1987-03-03 15:00:00 TS -13.0457 71.6501 main 1689 1680 P____P____P_P_ SH211987 -13.0575 71.4575 37 0 -13.0773 72.2950 3 36 991 -12.9906 71.3904 2 36 -13.0575 71.4575 TC 37 3 347
1987062S13072 1987 23 SI MM DAODO 1987-03-03 18:00:00 TS -12.8937 71.5994 36 991 reunion main 1685 1682 O____O____P_O_ jtwc_sh SH211987 -12.9000 71.5000 40 0 -13.0000 72.0000 3 36 991 3.00000 3.00000 -12.7749 71.3976 2 37 -12.9000 71.5000 TC 40 4 329
1987062S13072 1987 23 SI MM DAODO 1987-03-03 21:00:00 TS -12.7212 71.4515 main 1688 1678 P____P____P_P_ SH211987 -12.6700 71.4925 40 0 -12.9480 71.3900 3 36 991 -12.5968 71.4311 2 38 -12.6700 71.4925 TC 40 4 318
1987062S13072 1987 23 SI MM DAODO 1987-03-04 00:00:00 TS -12.6250 71.3500 36 991 reunion main 1684 1675 O____O____O_O_ jtwc_sh SH211987 -12.5000 71.5000 40 0 -13.0000 70.9000 3 36 991 3.00000 3.00000 -12.5000 71.5000 2 40 -12.5000 71.5000 TC 40 0 302
1987062S13072 1987 23 SI MM DAODO 1987-03-04 03:00:00 TS -12.6916 71.4191 main 1678 1678 P____P____P_P_ SH211987 -12.4900 71.5700 40 0 -13.2273 70.9224 3 44 983 -12.5591 71.6139 2 40 -12.4900 71.5700 TC 40 3 134
1987062S13072 1987 23 SI MM DAODO 1987-03-04 06:00:00 TS -12.8494 71.5905 52 976 reunion main 1691 1685 O____O____P_O_ jtwc_sh SH211987 -12.6000 71.7000 40 0 -13.5000 71.2000 3 52 976 4.00000 4.00000 -12.6976 71.7622 2 40 -12.6000 71.7000 TC 40 5 133
1987062S13072 1987 23 SI MM DAODO 1987-03-04 09:00:00 TS -13.0375 71.7998 main 1699 1693 P____P____P_P_ SH211987 -12.8075 71.8849 40 0 -13.6726 71.5000 3 52 976 -12.8622 71.9295 2 40 -12.8075 71.8849 TC 40 6 130
1987062S13072 1987 23 SI MM DAODO 1987-03-04 12:00:00 TS -13.2000 72.0250 52 976 reunion main 1706 1706 O____O____O_O_ jtwc_sh SH211987 -13.0000 72.1000 40 0 -13.8000 71.8000 3 52 976 4.00000 4.00000 -13.0000 72.1000 2 40 -13.0000 72.1000 TC 40 4 118
1987062S13072 1987 23 SI MM DAODO 1987-03-04 15:00:00 TS -13.2438 72.1937 main 1725 1725 P____P____P_P_ SH211987 -13.0300 72.3151 40 0 -13.8998 71.9352 3 52 976 -13.0154 72.2097 2 40 -13.0300 72.3151 TC 40 3 99
1987062S13072 1987 23 SI MM DAODO 1987-03-04 18:00:00 TS -13.2499 72.3564 52 976 reunion main 1744 1739 O____O____P_O_ jtwc_sh SH211987 -13.0000 72.5000 40 0 -14.0000 72.1000 3 52 976 4.00000 4.00000 -12.9996 72.3254 2 40 -13.0000 72.5000 TC 40 3 95
1987062S13072 1987 23 SI MM DAODO 1987-03-04 21:00:00 TS -13.2741 72.5296 main 1748 1748 P____P____P_P_ SH211987 -12.9849 72.5776 40 0 -14.1427 72.4849 3 52 976 -12.9840 72.4785 2 40 -12.9849 72.5776 TC 40 4 101
1987062S13072 1987 23 SI MM DAODO 1987-03-05 00:00:00 TS -13.3250 72.7500 52 976 reunion main 1777 1767 O____O____O_O_ jtwc_sh SH211987 -13.0000 72.7000 40 0 -14.3000 72.9000 3 52 976 4.00000 4.00000 -13.0000 72.7000 2 40 -13.0000 72.7000 TC 40 5 107
1987062S13072 1987 23 SI MM DAODO 1987-03-05 03:00:00 TS -13.4285 73.0473 main 1791 1791 P____P____P_P_ SH211987 -13.0775 72.9975 40 0 -14.4573 73.1501 3 52 976 -13.1016 73.0440 2 40 -13.0775 72.9975 TC 40 7 110
1987062S13072 1987 23 SI MM DAODO 1987-03-05 06:00:00 TS -13.5589 73.4136 52 976 reunion main 1819 1819 O____O____P_O_ jtwc_sh SH211987 -13.2000 73.4000 40 0 -14.6000 73.4000 3 52 976 4.00000 4.00000 -13.2356 73.4545 2 40 -13.2000 73.4000 TC 40 8 109
1987062S13072 1987 23 SI MM DAODO 1987-03-05 09:00:00 TS -13.6961 73.8375 main 1853 1853 P____P____P_P_ SH211987 -13.3500 73.8424 40 0 -14.7075 73.7775 3 52 976 -13.3766 73.8878 2 40 -13.3500 73.8424 TC 40 9 108
1987062S13072 1987 23 SI MM DAODO 1987-03-05 12:00:00 TS -13.8250 74.2750 52 976 reunion main 1897 1897 O____O____O_O_ jtwc_sh SH211987 -13.5000 74.3000 40 0 -14.8000 74.2000 3 52 976 4.00000 4.00000 -13.5000 74.3000 2 40 -13.5000 74.3000 TC 40 9 107
1987062S13072 1987 23 SI MM DAODO 1987-03-05 15:00:00 TS -13.9458 74.6871 main 1932 1927 P____P____P_P_ SH211987 -13.6225 74.7375 40 0 -14.9299 74.5999 3 52 976 -13.6081 74.6734 2 40 -13.6225 74.7375 TC 40 8 105
1987062S13072 1987 23 SI MM DAODO 1987-03-05 18:00:00 TS -14.0225 75.0531 52 976 reunion main 1967 1967 O____O____P_O_ jtwc_sh SH211987 -13.7000 75.1000 40 0 -15.0000 75.0000 3 52 976 4.00000 4.00000 -13.6900 75.0125 2 40 -13.7000 75.1000 TC 40 7 98
1987062S13072 1987 23 SI MM DAODO 1987-03-05 21:00:00 TS -14.0423 75.3670 main 1997 1997 P____P____P_P_ SH211987 -13.7299 75.3450 40 0 -14.9826 75.4827 3 48 980 -13.7269 75.2953 2 40 -13.7299 75.3450 TC 40 5 85
1987062S13072 1987 23 SI MM DAODO 1987-03-06 00:00:00 TS -13.9750 75.5750 44 984 reunion main 2017 2017 O____O____O_O_ jtwc_sh SH211987 -13.7000 75.5000 40 0 -14.8000 75.8000 3 44 984 3.50000 3.50000 -13.7000 75.5000 2 40 -13.7000 75.5000 TC 40 4 49
1987062S13072 1987 23 SI MM DAODO 1987-03-06 03:00:00 TS -13.8093 75.6445 main 2025 2025 P____P____P_P_ SH211987 -13.6375 75.6375 37 0 -14.3649 75.7397 3 44 984 -13.5975 75.5632 2 38 -13.6375 75.6375 TC 37 4 5
1987062S13072 1987 23 SI MM DAODO 1987-03-06 06:00:00 TS -13.5830 75.6143 44 984 reunion main 2034 2034 O____O____P_O_ jtwc_sh SH211987 -13.5000 75.7000 35 0 -13.9000 75.5000 3 44 984 3.50000 3.50000 -13.4321 75.5571 2 37 -13.5000 75.7000 TC 35 5 346
1987062S13072 1987 23 SI MM DAODO 1987-03-06 09:00:00 TS -13.3620 75.5293 main 2034 2034 P____P____P_P_ SH211987 -13.2800 75.6423 35 0 -13.6625 75.2850 3 44 984 -13.2256 75.5475 2 36 -13.2800 75.6423 TC 35 5 343
1987062S13072 1987 23 SI MM DAODO 1987-03-06 12:00:00 TS -13.1250 75.4750 44 984 reunion main 2048 2048 O____O____O_O_ jtwc_sh SH211987 -13.0000 75.6000 35 0 -13.5000 75.1000 3 44 984 3.50000 3.50000 -13.0000 75.6000 2 35 -13.0000 75.6000 TC 35 5 0
1987062S13072 1987 23 SI MM DAODO 1987-03-06 15:00:00 TS -12.8568 75.5537 main 2068 2068 P____P____P_P_ SH211987 -12.6849 75.6825 35 0 -13.3000 74.9975 3 44 984 -12.7573 75.8524 2 35 -12.6849 75.6825 TC 35 6 26
1987062S13072 1987 23 SI MM DAODO 1987-03-06 18:00:00 TS -12.6014 75.7414 44 984 reunion main 2092 2092 O____O____P_O_ jtwc_sh SH211987 -12.4000 75.9000 35 0 -13.1000 75.0000 3 44 984 3.50000 3.50000 -12.5056 76.1658 2 35 -12.4000 75.9000 TC 35 7 46
1987062S13072 1987 23 SI MM DAODO 1987-03-06 21:00:00 TS -12.4041 76.0422 main 2112 2093 P____P____P_P_ SH211987 -12.2127 76.3001 35 0 -12.9150 75.0975 3 48 980 -12.2760 76.4712 2 35 -12.2127 76.3001 TC 35 7 59
1987062S13072 1987 23 SI MM DAODO 1987-03-07 00:00:00 TS -12.2500 76.3500 52 976 reunion main 2080 2064 O____O____O_O_ jtwc_sh SH211987 -12.1000 76.7000 35 0 -12.7000 75.3000 3 52 976 4.00000 4.00000 -12.1000 76.7000 2 35 -12.1000 76.7000 TC 35 6 60
1987062S13072 1987 23 SI MM DAODO 1987-03-07 03:00:00 TS -12.1104 76.5720 main 2064 2051 P____P____P_P_ SH211987 -12.0274 76.9399 35 0 -12.3776 75.6227 3 52 976 -12.0092 76.7853 2 35 -12.0274 76.9399 TC 35 4 54
1987062S13072 1987 23 SI MM DAODO 1987-03-07 06:00:00 TS -12.0187 76.6712 52 976 reunion main 2051 2051 O____O____P_O_ jtwc_sh SH211987 -12.0000 77.0000 35 0 -12.1000 75.9000 3 52 976 4.00000 4.00000 -11.9748 76.7846 2 35 -12.0000 77.0000 TC 35 1 15
1987062S13072 1987 23 SI MM DAODO 1987-03-07 09:00:00 TS -11.9957 76.6010 main 2053 2053 P____P____P_P_ SH211987 -12.0000 76.8600 35 0 -12.0049 75.9674 3 52 976 -11.9780 76.7167 2 35 -12.0000 76.8600 TC 35 2 274
1987062S13072 1987 23 SI MM DAODO 1987-03-07 12:00:00 TS -12.0000 76.4250 52 976 reunion main 2058 2058 O____O____O_O_ jtwc_sh SH211987 -12.0000 76.6000 35 0 -12.0000 75.9000 3 52 976 4.00000 4.00000 -12.0000 76.6000 2 35 -12.0000 76.6000 TC 35 4 275
1987062S13072 1987 23 SI MM DAODO 1987-03-07 15:00:00 TS -11.9632 76.2286 main 2063 2055 P____P____P_P_ SH211987 -11.9350 76.3349 35 0 -11.9925 75.7725 3 52 976 -11.9903 76.4721 2 36 -11.9350 76.3349 TC 35 4 277
1987062S13072 1987 23 SI MM DAODO 1987-03-07 18:00:00 TS -11.9494 76.0256 52 976 reunion main 2058 2058 O____O____P_O_ jtwc_sh SH211987 -11.9000 76.1000 35 0 -12.0000 75.6000 3 52 976 4.00000 4.00000 -11.9975 76.3024 2 37 -11.9000 76.1000 TC 35 3 266
1987062S13072 1987 23 SI MM DAODO 1987-03-07 21:00:00 TS -11.9871 75.8835 main 2071 2071 P____P____P_P_ SH211987 -11.9624 75.9925 37 0 -11.9925 75.4425 3 56 973 -12.0310 76.1064 2 38 -11.9624 75.9925 TC 37 3 245
1987062S13072 1987 23 SI MM DAODO 1987-03-08 00:00:00 TS -12.0750 75.7500 60 970 reunion main 2085 2085 O____O____O_O_ jtwc_sh SH211987 -12.1000 75.9000 40 0 -12.0000 75.3000 3 60 970 4.50000 4.50000 -12.1000 75.9000 2 40 -12.1000 75.9000 TC 40 4 231
1987062S13072 1987 23 SI MM DAODO 1987-03-08 03:00:00 TS -12.2192 75.5908 main 2102 2073 P____P____P_P_ SH211987 -12.3000 75.7151 42 0 -12.0500 75.2150 3 60 970 -12.2269 75.7180 2 43 -12.3000 75.7151 TC 42 4 229
1987062S13072 1987 23 SI MM DAODO 1987-03-08 06:00:00 TS -12.3716 75.4068 60 970 reunion main 2073 2049 O____O____P_O_ jtwc_sh SH211987 -12.5000 75.5000 45 0 -12.1000 75.1000 3 60 970 4.50000 4.50000 -12.3863 75.5274 2 47 -12.5000 75.5000 TC 45 5 237
1987062S13072 1987 23 SI MM DAODO 1987-03-08 09:00:00 TS -12.4650 75.2045 main 2049 2030 P____P____P_P_ SH211987 -12.6150 75.3074 50 0 -12.0775 74.8799 3 60 970 -12.5525 75.3231 2 51 -12.6150 75.3074 TC 50 5 247
1987062S13072 1987 23 SI MM DAODO 1987-03-08 12:00:00 TS -12.5500 74.9750 60 970 reunion main 2030 1996 O____O____O_O_ jtwc_sh SH211987 -12.7000 75.1000 55 0 -12.1000 74.6000 3 60 970 4.50000 4.50000 -12.7000 75.1000 2 55 -12.7000 75.1000 TC 55 5 249
1987062S13072 1987 23 SI MM DAODO 1987-03-08 15:00:00 TS -12.6476 74.7232 main 1996 1966 P____P____P_P_ SH211987 -12.7775 74.8649 60 0 -12.2550 74.3000 3 60 970 -12.7804 74.8629 2 60 -12.7775 74.8649 TC 60 6 244
1987062S13072 1987 23 SI MM DAODO 1987-03-08 18:00:00 TS -12.8000 74.4500 60 970 reunion main 1966 1927 O____O____O_O_ jtwc_sh SH211987 -12.9000 74.6000 65 1 -12.5000 74.0000 3 60 970 4.50000 4.50000 -12.9000 74.6000 3 65 -12.9000 74.6000 TC 65 7 235
1987062S13072 1987 23 SI MM DAODO 1987-03-08 21:00:00 TS -13.0314 74.1571 main 1927 1883 P____P____P_P_ SH211987 -13.1200 74.3000 67 1 -12.7625 73.7275 3 60 970 -13.1231 74.3009 3 67 -13.1200 74.3000 TC 67 8 227
1987062S13072 1987 23 SI MM DAODO 1987-03-09 00:00:00 TS -13.3250 73.8750 60 970 reunion main 1883 1839 O____O____O_O_ jtwc_sh SH211987 -13.4000 74.0000 70 1 -13.1000 73.5000 3 60 970 4.50000 4.50000 -13.4000 74.0000 4 70 -13.4000 74.0000 TC 70 8 219
1987062S13072 1987 23 SI MM DAODO 1987-03-09 03:00:00 TS -13.6544 73.6340 main 1834 1800 P____P____P_P_ SH211987 -13.7000 73.7350 72 1 -13.5425 73.3275 3 66 962 -13.6753 73.7387 4 70 -13.7000 73.7350 TC 72 8 213
1987062S13072 1987 23 SI MM DAODO 1987-03-09 06:00:00 TS -13.9900 73.4264 72 954 reunion main 1800 1766 O____O____P_O_ jtwc_sh SH211987 -14.0000 73.5000 75 1 -14.0000 73.2000 4 72 954 5.00000 5.00000 -13.9601 73.5056 4 70 -14.0000 73.5000 TC 75 7 211
1987062S13072 1987 23 SI MM DAODO 1987-03-09 09:00:00 TS -14.2912 73.2374 main 1766 1747 P____P____P_P_ SH211987 -14.2725 73.2850 72 1 -14.3800 73.0850 4 72 954 -14.2398 73.2947 4 70 -14.2725 73.2850 TC 72 7 211
1987062S13072 1987 23 SI MM DAODO 1987-03-09 12:00:00 TS -14.5500 73.0750 72 954 reunion main 1747 1718 O____O____O_O_ jtwc_sh SH211987 -14.5000 73.1000 70 1 -14.7000 73.0000 4 72 954 5.00000 5.00000 -14.5000 73.1000 4 70 -14.5000 73.1000 TC 70 5 213
1987062S13072 1987 23 SI MM DAODO 1987-03-09 15:00:00 TS -14.7417 72.9361 main 1718 1699 P____P____P_P_ SH211987 -14.6500 72.9499 67 1 -14.9575 72.9424 4 72 954 -14.7093 72.9022 4 68 -14.6500 72.9499 TC 67 5 215
1987062S13072 1987 23 SI MM DAODO 1987-03-09 18:00:00 TS -14.9250 72.8049 72 954 reunion main 1699 1681 O____O____P_O_ jtwc_sh SH211987 -14.8000 72.8000 65 1 -15.2000 72.9000 4 72 954 5.00000 5.00000 -14.8999 72.7197 4 67 -14.8000 72.8000 TC 65 5 213
1987062S13072 1987 23 SI MM DAODO 1987-03-09 21:00:00 TS -15.1558 72.6599 main 1677 1648 P____P____P_P_ SH211987 -15.0200 72.6075 65 1 -15.4925 72.8724 4 72 954 -15.0906 72.5523 4 66 -15.0200 72.6075 TC 65 6 210
1987062S13072 1987 23 SI MM DAODO 1987-03-10 00:00:00 TS -15.4250 72.5000 72 954 reunion main 1648 1616 O____O____O_O_ jtwc_sh SH211987 -15.3000 72.4000 65 1 -15.8000 72.8000 4 72 954 5.00000 5.00000 -15.3000 72.4000 4 65 -15.3000 72.4000 TC 65 7 210
1987062S13072 1987 23 SI MM DAODO 1987-03-10 03:00:00 TS -15.7547 72.3047 main 1612 1581 P____P____P_P_ SH211987 -15.6575 72.1776 65 1 -16.1300 72.6152 4 72 954 -15.5737 72.2485 4 65 -15.6575 72.1776 TC 65 7 209
1987062S13072 1987 23 SI MM DAODO 1987-03-10 06:00:00 TS -16.0662 72.1282 72 954 reunion main 1581 1563 O____O____P_O_ jtwc_sh SH211987 -16.0000 72.0000 65 1 -16.4000 72.4000 4 72 954 5.00000 5.00000 -15.8650 72.1126 4 65 -16.0000 72.0000 TC 65 6 207
1987062S13072 1987 23 SI MM DAODO 1987-03-10 09:00:00 TS -16.2809 72.0213 main 1563 1560 P____P____P_P_ SH211987 -16.2300 71.9274 65 1 -16.5150 72.2349 4 66 962 -16.1487 71.9954 4 65 -16.2300 71.9274 TC 65 4 204
1987062S13072 1987 23 SI MM DAODO 1987-03-10 12:00:00 TS -16.4500 71.9500 60 970 reunion main 1560 1543 O____O____O_O_ jtwc_sh SH211987 -16.4000 71.9000 65 1 -16.6000 72.1000 3 60 970 4.50000 4.50000 -16.4000 71.9000 4 65 -16.4000 71.9000 TC 65 4 202
1987062S13072 1987 23 SI MM DAODO 1987-03-10 15:00:00 TS -16.6261 71.8770 main 1543 1526 P____P____P_P_ SH211987 -16.5575 71.8500 65 1 -16.8075 72.0000 3 60 970 -16.5818 71.8080 4 65 -16.5575 71.8500 TC 65 4 202
1987062S13072 1987 23 SI MM DAODO 1987-03-10 18:00:00 TS -16.7825 71.8100 60 970 reunion main 1526 1512 O____O____P_O_ jtwc_sh SH211987 -16.7000 71.8000 65 1 -17.0000 71.9000 3 60 970 4.50000 4.50000 -16.7299 71.7399 4 65 -16.7000 71.8000 TC 65 3 206
1987062S13072 1987 23 SI MM DAODO 1987-03-10 21:00:00 TS -16.9033 71.7323 main 1512 1509 P____P____P_P_ SH211987 -16.8500 71.7350 65 1 -17.0500 71.7574 3 60 970 -16.8631 71.7019 4 65 -16.8500 71.7350 TC 65 3 209
1987062S13072 1987 23 SI MM DAODO 1987-03-11 00:00:00 TS -17.0250 71.6750 60 970 reunion main 1509 1493 O____O____O_O_ jtwc_sh SH211987 -17.0000 71.7000 65 1 -17.1000 71.6000 3 60 970 4.50000 4.50000 -17.0000 71.7000 4 65 -17.0000 71.7000 TC 65 3 198
1987062S13072 1987 23 SI MM DAODO 1987-03-11 03:00:00 TS -17.1766 71.6438 main 1493 1490 P____P____P_P_ SH211987 -17.1425 71.7275 65 1 -17.2700 71.4052 3 60 970 -17.1515 71.7149 4 65 -17.1425 71.7275 TC 65 3 183
1987062S13072 1987 23 SI MM DAODO 1987-03-11 06:00:00 TS -17.3531 71.6670 60 970 reunion main 1497 1494 O____O____P_O_ jtwc_sh SH211987 -17.3000 71.8000 65 1 -17.5000 71.3000 3 60 970 4.50000 4.50000 -17.3124 71.7678 4 65 -17.3000 71.8000 TC 65 4 165
1987062S13072 1987 23 SI MM DAODO 1987-03-11 09:00:00 TS -17.5567 71.7517 main 1502 1499 P____P____P_P_ SH211987 -17.4850 71.8776 65 1 -17.7650 71.3898 3 56 973 -17.4921 71.8619 4 65 -17.4850 71.8776 TC 65 5 152
1987062S13072 1987 23 SI MM DAODO 1987-03-11 12:00:00 TS -17.7750 71.9000 52 976 reunion main 1507 1507 O____O____O_O_ jtwc_sh SH211987 -17.7000 72.0000 65 1 -18.0000 71.6000 3 52 976 4.00000 4.00000 -17.7000 72.0000 4 65 -17.7000 72.0000 TC 65 5 143
1987062S13072 1987 23 SI MM DAODO 1987-03-11 15:00:00 TS -17.9732 72.0796 main 1523 1523 P____P____P_P_ SH211987 -17.9350 72.1775 65 1 -18.0849 71.8054 3 52 976 -17.9380 72.1577 4 65 -17.9350 72.1775 TC 65 6 137
1987062S13072 1987 23 SI MM DAODO 1987-03-11 18:00:00 TS -18.2012 72.3151 52 976 reunion main 1539 1539 O____O____P_O_ jtwc_sh SH211987 -18.2000 72.4000 65 1 -18.2000 72.1000 3 52 976 4.00000 4.00000 -18.2048 72.3604 4 65 -18.2000 72.4000 TC 65 7 137
1987062S13072 1987 23 SI MM DAODO 1987-03-11 21:00:00 TS -18.4960 72.5939 main 1564 1564 P____P____P_P_ SH211987 -18.4774 72.6202 65 1 -18.5351 72.5271 3 52 976 -18.4941 72.6079 4 65 -18.4774 72.6202 TC 65 9 137
1987062S13072 1987 23 SI MM DAODO 1987-03-12 00:00:00 TS -18.8250 72.9250 52 976 reunion main 1590 1590 O____O____O_O_ jtwc_sh SH211987 -18.8000 72.9000 65 1 -18.9000 73.0000 3 52 976 4.00000 4.00000 -18.8000 72.9000 4 65 -18.8000 72.9000 TC 65 9 134
1987062S13072 1987 23 SI MM DAODO 1987-03-12 03:00:00 TS -19.1495 73.3140 main 1627 1626 P____P____P_P_ SH211987 -19.2076 73.2847 65 1 -19.1000 73.4303 3 56 973 -19.0827 73.2562 4 62 -19.2076 73.2847 TC 65 10 131
1987062S13072 1987 23 SI MM DAODO 1987-03-12 06:00:00 TS -19.4708 73.7125 60 970 reunion main 1664 1664 O____O____P_O_ jtwc_sh SH211987 -19.6000 73.7000 65 1 -19.3000 73.8000 3 60 970 4.50000 4.50000 -19.3832 73.6500 4 60 -19.6000 73.7000 TC 65 9 131
1987062S13072 1987 23 SI MM DAODO 1987-03-12 09:00:00 TS -19.7498 74.0581 main 1703 1702 P____P____P_P_ SH211987 -19.8349 74.0655 60 0 -19.6123 74.0578 3 60 970 -19.7171 74.0438 4 57 -19.8349 74.0655 TC 60 9 134
1987062S13072 1987 23 SI MM DAODO 1987-03-12 12:00:00 TS -20.0750 74.3750 60 970 reunion main 1731 1730 O____O____O_O_ jtwc_sh SH211987 -20.1000 74.4000 55 0 -20.0000 74.3000 3 60 970 4.50000 4.50000 -20.1000 74.4000 2 55 -20.1000 74.4000 TC 55 10 142
1987062S13072 1987 23 SI MM DAODO 1987-03-12 15:00:00 TS -20.5306 74.7074 main 1760 1760 P____P____P_P_ SH211987 -20.5625 74.7298 50 0 -20.4276 74.6499 3 60 970 -20.5698 74.7201 2 53 -20.5625 74.7298 TC 50 11 149
1987062S13072 1987 23 SI MM DAODO 1987-03-12 18:00:00 TS -21.0462 74.9978 60 970 reunion main 1790 1790 O____O____P_O_ jtwc_sh SH211987 -21.1000 75.0000 45 0 -20.9000 75.0000 3 60 970 4.50000 4.50000 -21.0848 74.9912 2 52 -21.1000 75.0000 TC 45 11 154
1987062S13072 1987 23 SI MM DAODO 1987-03-12 21:00:00 TS -21.5518 75.2304 main 1811 1811 P____P____P_P_ SH211987 -21.6149 75.2025 47 0 -21.3700 75.3246 3 60 970 -21.6074 75.1918 2 51 -21.6149 75.2025 TC 47 11 162
1987062S13072 1987 23 SI MM DAODO 1987-03-13 00:00:00 TS -22.0500 75.3500 60 970 reunion main 1833 1826 O____O____O_O_ jtwc_sh SH211987 -22.1000 75.3000 50 0 -21.9000 75.5000 3 60 970 4.50000 4.50000 -22.1000 75.3000 2 50 -22.1000 75.3000 TC 50 10 175
1987062S13072 1987 23 SI MM DAODO 1987-03-13 03:00:00 TS -22.5408 75.3281 main 1826 1820 P____P____P_P_ SH211987 -22.5225 75.2951 52 0 -22.5875 75.4034 3 60 970 -22.5309 75.3188 2 50 -22.5225 75.2951 TC 52 9 188
1987062S13072 1987 23 SI MM DAODO 1987-03-13 06:00:00 TS -22.9811 75.2109 60 970 reunion main 1821 1814 O____O____P_O_ jtwc_sh SH211987 -22.9000 75.2000 55 0 -23.2000 75.2000 3 60 970 4.50000 4.50000 -22.9246 75.2436 2 50 -22.9000 75.2000 TC 55 8 196
1987062S13072 1987 23 SI MM DAODO 1987-03-13 09:00:00 TS -23.3340 75.0891 main 1815 1799 P____P____P_P_ SH211987 -23.2650 75.0799 52 0 -23.5249 75.0997 3 56 973 -23.2810 75.0965 2 50 -23.2650 75.0799 TC 52 7 202
1987062S13072 1987 23 SI MM DAODO 1987-03-13 12:00:00 TS -23.6250 74.9250 52 976 reunion main 1799 1785 O____O____O_O_ jtwc_sh SH211987 -23.6000 74.9000 50 0 -23.7000 75.0000 3 52 976 4.00000 4.00000 -23.6000 74.9000 2 50 -23.6000 74.9000 TC 50 7 211
1987062S13072 1987 23 SI MM DAODO 1987-03-13 15:00:00 TS -23.8945 74.7170 main 1785 1769 P____P____P_P_ SH211987 -23.9225 74.6650 47 0 -23.8425 74.8648 3 52 976 -23.8903 74.6731 2 50 -23.9225 74.6650 TC 47 7 219
1987062S13072 1987 23 SI MM DAODO 1987-03-13 18:00:00 MX -24.1364 74.4770 52 976 reunion main 1769 1745 O____O____P_O_ jtwc_sh SH211987 -24.2000 74.4000 45 0 -24.0000 74.7000 5 52 976 4.00000 4.00000 -24.1455 74.4079 2 50 -24.2000 74.4000 TC 45 7 223
1987062S13072 1987 23 SI MM DAODO 1987-03-13 21:00:00 MX -24.3713 74.2290 main 1745 1730 P____P____P_P_ SH211987 -24.4075 74.1423 45 0 -24.2926 74.4927 5 52 976 -24.3778 74.1387 2 50 -24.4075 74.1423 TC 45 6 223
1987062S13072 1987 23 SI MM DAODO 1987-03-14 00:00:00 MX -24.6000 74.0000 52 976 reunion main 1730 1716 O____O____O_O_ jtwc_sh SH211987 -24.6000 73.9000 45 0 -24.6000 74.3000 5 52 976 4.00000 4.00000 -24.6000 73.9000 2 50 -24.6000 73.9000 TC 45 6 221
1987062S13072 1987 23 SI MM DAODO 1987-03-14 03:00:00 MX -24.8174 73.8098 main 1716 1709 P____P____P_P_ SH211987 -24.8500 73.6701 42 0 -24.7700 74.1847 5 52 976 -24.7995 73.7144 2 50 -24.8500 73.6701 TC 42 5 214
1987062S13072 1987 23 SI MM DAODO 1987-03-14 06:00:00 MX -25.0493 73.6668 52 976 reunion main 1712 1705 O____O____P_O_ jtwc_sh SH211987 -25.1000 73.5000 40 0 -25.0000 74.1000 5 52 976 4.00000 4.00000 -24.9973 73.5673 2 50 -25.1000 73.5000 TC 40 5 203
1987062S13072 1987 23 SI MM DAODO 1987-03-14 09:00:00 MX -25.3154 73.5698 main 1711 1704 P____P____P_P_ SH211987 -25.2925 73.4199 40 0 -25.4550 73.9778 5 52 976 -25.2215 73.4616 2 50 -25.2925 73.4199 TC 40 6 193
1987062S13072 1987 23 SI MM DAODO 1987-03-14 12:00:00 MX -25.6250 73.5250 52 976 reunion main 1711 1711 O____O____O_O_ jtwc_sh SH211987 -25.5000 73.4000 40 0 -26.0000 73.9000 5 52 976 4.00000 4.00000 -25.5000 73.4000 2 50 -25.5000 73.4000 TC 40 6 184
1987062S13072 1987 23 SI MM DAODO 1987-03-14 15:00:00 MX -25.9594 73.5227 main 1724 1724 P____P____P_P_ SH211987 -25.7475 73.3851 40 0 -26.5075 73.9272 5 52 976 -25.8350 73.3933 2 50 -25.7475 73.3851 TC 40 7 177
1987062S13072 1987 23 SI MM DAODO 1987-03-14 18:00:00 MX -26.3575 73.5566 52 976 reunion main 1748 1748 O____O____P_O_ jtwc_sh SH211987 -26.1000 73.4000 40 0 -27.0000 74.0000 5 52 976 4.00000 4.00000 -26.2301 73.4263 2 50 -26.1000 73.4000 TC 40 9 176
1987062S13072 1987 23 SI MM DAODO 1987-03-14 21:00:00 MX -26.8344 73.5978 main 1763 1763 P____P____P_P_ SH211987 -26.5975 73.4572 40 0 -27.4573 74.0056 5 52 976 -26.6851 73.4712 2 50 -26.5975 73.4572 TC 40 10 176
1987062S13072 1987 23 SI MM DAODO 1987-03-15 00:00:00 MX -27.3750 73.6500 52 976 reunion main 1796 1796 O____O____O_O_ jtwc_sh SH211987 -27.2000 73.5000 40 0 -27.9000 74.1000 5 52 976 4.00000 4.00000 -27.2000 73.5000 2 50 -27.2000 73.5000 TC 40 11 174
1987062S13072 1987 23 SI MM DAODO 1987-03-15 03:00:00 MX -27.9626 73.7374 main 1822 1822 P____P____P_P_ SH211987 -27.8425 73.4652 37 0 -28.3654 74.5159 5 52 976 -27.7998 73.5034 2 50 -27.8425 73.4652 TC 37 12 173
1987062S13072 1987 23 SI MM DAODO 1987-03-15 06:00:00 MX -28.5714 73.8233 52 976 reunion main 1859 1859 O____O____P_O_ jtwc_sh SH211987 -28.5000 73.4000 35 0 -28.8000 74.8000 5 52 976 4.00000 4.00000 -28.4497 73.4815 2 50 -28.5000 73.4000 TC 35 12 0
1987062S13072 1987 23 SI MM DAODO 1987-03-15 09:00:00 MX -29.1317 73.7517 main 1884 1880 P____P____P_P_ SH211987 -29.1150 73.3450 35 0 -29.1804 74.4913 5 52 976 -29.0998 73.4188 2 50 -29.1150 73.3450 TC 35 11 191
1987062S13072 1987 23 SI MM DAODO 1987-03-15 12:00:00 MX -29.6200 73.5800 52 976 reunion main 1893 1890 O____O____O_O_ jtwc_sh SH211987 -29.7000 73.3000 35 0 -29.5000 74.0000 5 52 976 4.00000 4.00000 -29.7000 73.3000 2 50 -29.7000 73.3000 TC 35 9 199
1987062S13072 1987 23 SI MM DAODO 1987-03-15 15:00:00 ET -29.9962 73.3980 main 1898 1893 _____P____P___ SH211987 -1 -29.7648 73.7271 5 52 976 -30.2277 73.0689 2 50 TC 8 207
1987062S13072 1987 23 SI MM DAODO 1987-03-15 18:00:00 ET -30.3466 73.1439 52 976 reunion main 1890 1890 _____O____P___ -1 -30.0000 73.5000 5 52 976 4.00000 4.00000 -30.6932 72.7877 2 50 8 214
1987062S13072 1987 23 SI MM DAODO 1987-03-15 21:00:00 ET -30.6572 72.8885 main 1898 1888 _____P____P___ -1 -30.2274 73.2645 5 52 976 -31.0871 72.5124 2 50 7 215
1987062S13072 1987 23 SI MM DAODO 1987-03-16 00:00:00 ET -30.9500 72.6500 52 976 reunion main 1895 1890 _____O____O___ -1 -30.5000 73.0000 5 52 976 4.00000 4.00000 -31.4000 72.3000 2 50 7 214
1987062S13072 1987 23 SI MM DAODO 1987-03-16 03:00:00 ET -31.2563 72.4097 main 1897 1895 _____P____P___ -1 -30.9003 72.6208 5 52 976 -31.6124 72.1987 2 50 7 212
1987062S13072 1987 23 SI MM DAODO 1987-03-16 06:00:00 ET -31.5260 72.2358 52 976 reunion main 1895 1895 _____O____P___ -1 -31.3000 72.3000 5 52 976 4.00000 4.00000 -31.7520 72.1716 2 50 5 201
1987062S13072 1987 23 SI MM DAODO 1987-03-16 09:00:00 ET -31.7265 72.2029 main 1908 1899 _____P____P___ -1 -31.5873 72.1970 5 52 976 -31.8656 72.2088 2 50 4 0
1987062S13072 1987 23 SI MM DAODO 1987-03-16 12:00:00 ET -31.9000 72.2500 52 976 reunion main 1900 1878 _____O____O___ -1 -31.8000 72.2000 5 52 976 4.00000 4.00000 -32.0000 72.3000 2 50 3 169
1987062S13072 1987 23 SI MM DAODO 1987-03-16 15:00:00 ET -32.0655 72.2802 main 1878 1867 _____P____P___ -1 -31.9424 72.1553 5 48 980 -32.1887 72.4050 2 48 4 163
1987062S13072 1987 23 SI MM DAODO 1987-03-16 18:00:00 ET -32.2549 72.3806 44 984 reunion main 1857 1836 _____O____P___ -1 -32.1000 72.2000 5 44 984 3.50000 3.50000 -32.4098 72.5612 2 47 5 151
1987062S13072 1987 23 SI MM DAODO 1987-03-16 21:00:00 ET -32.5381 72.5944 main 1838 1807 _____P____P___ -1 -32.4002 72.4269 5 44 984 -32.6761 72.7618 2 46 7 146
1987062S13072 1987 23 SI MM DAODO 1987-03-17 00:00:00 ET -32.8500 72.8500 44 984 reunion main 1809 1777 _____O____O___ -1 -32.7000 72.7000 5 44 984 3.50000 3.50000 -33.0000 73.0000 2 45 7 146
1987062S13072 1987 23 SI MM DAODO 1987-03-17 03:00:00 ET -33.1157 73.0549 main 1779 1748 _____P____P___ -1 -32.8349 72.8581 5 44 984 -33.3965 73.2516 2 42 7 149
1987062S13072 1987 23 SI MM DAODO 1987-03-17 06:00:00 ET -33.4237 73.2699 44 984 reunion main 1749 1709 _____O____P___ -1 -33.0000 73.0000 5 44 984 3.50000 3.50000 -33.8474 73.5399 2 40 8 152
1987062S13072 1987 23 SI MM DAODO 1987-03-17 09:00:00 ET -33.8322 73.5144 main 1709 1660 _____P____P___ -1 -33.3399 73.1705 5 40 987 -34.3245 73.8583 2 37 10 153
1987062S13072 1987 23 SI MM DAODO 1987-03-17 12:00:00 TS -34.3000 73.8000 36 991 reunion main 1660 1612 _____O____O___ -1 -33.8000 73.4000 6 36 991 3.00000 3.00000 -34.8000 74.2000 2 35 11 152
1987062S13072 1987 23 SI MM DAODO 1987-03-17 15:00:00 TS -34.8008 74.1391 main 1612 1575 _____P____P___ -1 -34.3500 73.7197 6 32 994 -35.2517 74.5585 2 32 11 150
1987062S13072 1987 23 SI MM DAODO 1987-03-17 18:00:00 TS -35.2347 74.4557 28 997 reunion main 1577 1539 _____O____P___ -1 -34.9000 74.1000 6 28 997 2.50000 2.50000 -35.6809 74.9300 2 30 9 147
1987062S13072 1987 23 SI MM DAODO 1987-03-17 21:00:00 TS -35.5798 74.7659 main 1541 1514 _____P____P___ -1 -35.3224 74.4931 6 26 998 -36.0946 75.3115 2 27 8 142
1987062S13072 1987 23 SI MM DAODO 1987-03-18 00:00:00 TS -35.9000 75.1000 24 1000 reunion main 1514 1496 _____O____O___ -1 -35.7000 74.9000 6 24 1000 2.00000 2.00000 -36.5000 75.7000 1 25 7 140
1987062S13072 1987 23 SI MM DAODO 1987-03-18 03:00:00 TS -36.0927 75.3016 main 1496 1462 _____P________ -1 -36.0927 75.3016 6 24 1000 1 8 141
1987062S13072 1987 23 SI MM DAODO 1987-03-18 06:00:00 TS -36.5000 75.7000 24 1000 reunion main 1462 _____O________ -1 -36.5000 75.7000 6 24 1000 2.00000 2.00000 1 10 142

About IBTrACS Database

This database is a web-friendly format of International Best Track Archive for Climate Stewardship (IBTrACS), a global best track data archive curated by NOAA dating back to 1842.

Updated: 2021-10-08